aviador You're here:

CYDN Decoded Metar

DAUPHIN in MB, CANADA
Report Time2017-06-27 05:00:00
UTC Time2017-06-27 05:18:49
Flight Rules vfr VFR
Wind180° at 04 kt
W.Decomp.*RWY 20: 3.6 kt HW 1.8 kt LCW
RWY 14: 3.4 kt HW 2.2 kt RCW
RWY 26: 0.2 kt HW 4 kt LCW
W.Rank180° ranks 34
Current wind is below 180° avg. (5.9)
Visibility9999 m
Phenomena:N/A
Clouds:N/A
Expected CloudBase > 2,400 ft AGL from Temp-Dew spread
CeilingNone
Temp13°C (ISA -0)
Dew Point07°C (67% RH)
AAT10.9°C
QNH1012 hPa
Density Alt1,175 ft
Elevation1,001 ft
Report Wrong Elevation
Raw Report
CYDN 270500Z AUTO 18004KT 9SM CLR 13/07 A2988 RMK SLP122 DENSITY
ALT 1000FT=

Extra information for CYDN:More info

Metar Taf Metar & Taf Last 4 Metars F.Rules Stats Wind Profile Meteogram Temp Stats Airport Information Weather charts Add Link Nearby VenuesMetar ALERT Operation Metar Decoded Social comments